sensor_id;sensor_type;location;lat;lon;timestamp;P1;durP1;ratioP1;P2;durP2;ratioP2
31224;SDS011;17847;31.524;74.366;2023-07-13T00:02:15;16.27;;;13.98;;
31224;SDS011;17847;31.524;74.366;2023-07-13T00:04:44;18.38;;;14.88;;
31224;SDS011;17847;31.524;74.366;2023-07-13T00:07:13;18.45;;;15.27;;
31224;SDS011;17847;31.524;74.366;2023-07-13T00:09:43;19.17;;;15.88;;
31224;SDS011;17847;31.524;74.366;2023-07-13T00:12:31;18.20;;;16.30;;
31224;SDS011;17847;31.524;74.366;2023-07-13T00:15:15;16.88;;;15.15;;
31224;SDS011;17847;31.524;74.366;2023-07-13T00:17:51;19.58;;;16.58;;
31224;SDS011;17847;31.524;74.366;2023-07-13T00:20:24;19.33;;;17.10;;
31224;SDS011;17847;31.524;74.366;2023-07-13T00:22:53;19.90;;;15.48;;
31224;SDS011;17847;31.524;74.366;2023-07-13T00:25:23;18.83;;;16.42;;
31224;SDS011;17847;31.524;74.366;2023-07-13T00:30:26;17.67;;;15.18;;
31224;SDS011;17847;31.524;74.366;2023-07-13T00:32:57;23.98;;;16.17;;
31224;SDS011;17847;31.524;74.366;2023-07-13T00:35:43;21.77;;;18.38;;
31224;SDS011;17847;31.524;74.366;2023-07-13T00:38:12;23.45;;;18.45;;
31224;SDS011;17847;31.524;74.366;2023-07-13T00:40:42;23.45;;;18.92;;
31224;SDS011;17847;31.524;74.366;2023-07-13T00:43:16;23.48;;;18.85;;
31224;SDS011;17847;31.524;74.366;2023-07-13T00:48:21;23.83;;;19.42;;
31224;SDS011;17847;31.524;74.366;2023-07-13T00:51:00;25.58;;;19.80;;
31224;SDS011;17847;31.524;74.366;2023-07-13T00:53:31;22.17;;;18.83;;
31224;SDS011;17847;31.524;74.366;2023-07-13T00:56:03;21.75;;;18.27;;
31224;SDS011;17847;31.524;74.366;2023-07-13T00:58:33;21.90;;;16.73;;
31224;SDS011;17847;31.524;74.366;2023-07-13T01:01:04;27.63;;;17.38;;
31224;SDS011;17847;31.524;74.366;2023-07-13T01:03:34;17.85;;;15.25;;
31224;SDS011;17847;31.524;74.366;2023-07-13T01:06:04;17.33;;;14.35;;
31224;SDS011;17847;31.524;74.366;2023-07-13T01:08:34;17.70;;;13.63;;
31224;SDS011;17847;31.524;74.366;2023-07-13T01:11:03;16.63;;;13.85;;
31224;SDS011;17847;31.524;74.366;2023-07-13T01:13:33;18.05;;;12.93;;
31224;SDS011;17847;31.524;74.366;2023-07-13T01:16:05;13.55;;;12.15;;
31224;SDS011;17847;31.524;74.366;2023-07-13T01:18:43;14.20;;;11.63;;
31224;SDS011;17847;31.524;74.366;2023-07-13T01:21:13;12.77;;;11.48;;
31224;SDS011;17847;31.524;74.366;2023-07-13T01:23:42;15.60;;;11.85;;
31224;SDS011;17847;31.524;74.366;2023-07-13T01:26:13;15.95;;;11.40;;
31224;SDS011;17847;31.524;74.366;2023-07-13T01:28:43;13.52;;;11.57;;
31224;SDS011;17847;31.524;74.366;2023-07-13T01:31:13;13.35;;;11.07;;
31224;SDS011;17847;31.524;74.366;2023-07-13T01:33:42;13.77;;;11.73;;
31224;SDS011;17847;31.524;74.366;2023-07-13T01:36:12;13.20;;;11.85;;
31224;SDS011;17847;31.524;74.366;2023-07-13T01:38:42;12.82;;;11.50;;
31224;SDS011;17847;31.524;74.366;2023-07-13T01:41:11;14.82;;;11.55;;
31224;SDS011;17847;31.524;74.366;2023-07-13T01:43:41;16.08;;;12.20;;
31224;SDS011;17847;31.524;74.366;2023-07-13T01:46:10;16.45;;;12.13;;
31224;SDS011;17847;31.524;74.366;2023-07-13T01:48:42;14.13;;;11.57;;
31224;SDS011;17847;31.524;74.366;2023-07-13T01:51:12;13.80;;;11.48;;
31224;SDS011;17847;31.524;74.366;2023-07-13T01:53:44;15.10;;;12.23;;
31224;SDS011;17847;31.524;74.366;2023-07-13T01:56:14;15.57;;;12.68;;
31224;SDS011;17847;31.524;74.366;2023-07-13T01:58:44;15.35;;;13.02;;
31224;SDS011;17847;31.524;74.366;2023-07-13T02:01:15;13.82;;;11.38;;
31224;SDS011;17847;31.524;74.366;2023-07-13T02:03:46;13.73;;;12.13;;
31224;SDS011;17847;31.524;74.366;2023-07-13T02:06:15;19.10;;;11.43;;
31224;SDS011;17847;31.524;74.366;2023-07-13T02:08:45;14.50;;;13.00;;
31224;SDS011;17847;31.524;74.366;2023-07-13T02:11:14;14.23;;;12.27;;
31224;SDS011;17847;31.524;74.366;2023-07-13T02:13:43;13.18;;;11.80;;
31224;SDS011;17847;31.524;74.366;2023-07-13T02:16:14;13.98;;;12.48;;
31224;SDS011;17847;31.524;74.366;2023-07-13T02:18:44;17.30;;;13.32;;
31224;SDS011;17847;31.524;74.366;2023-07-13T02:21:13;17.15;;;13.02;;
31224;SDS011;17847;31.524;74.366;2023-07-13T02:23:45;16.27;;;11.45;;
31224;SDS011;17847;31.524;74.366;2023-07-13T02:26:15;15.55;;;12.00;;
31224;SDS011;17847;31.524;74.366;2023-07-13T02:28:45;12.38;;;10.75;;
31224;SDS011;17847;31.524;74.366;2023-07-13T02:31:14;12.68;;;10.98;;
31224;SDS011;17847;31.524;74.366;2023-07-13T02:33:45;15.55;;;11.20;;
31224;SDS011;17847;31.524;74.366;2023-07-13T02:36:17;11.48;;;9.63;;
31224;SDS011;17847;31.524;74.366;2023-07-13T02:38:49;11.52;;;9.90;;
31224;SDS011;17847;31.524;74.366;2023-07-13T02:41:20;12.85;;;9.93;;
31224;SDS011;17847;31.524;74.366;2023-07-13T02:43:51;12.57;;;10.38;;
31224;SDS011;17847;31.524;74.366;2023-07-13T02:46:21;10.32;;;9.10;;
31224;SDS011;17847;31.524;74.366;2023-07-13T02:48:55;12.30;;;9.77;;
31224;SDS011;17847;31.524;74.366;2023-07-13T02:51:24;9.70;;;8.75;;
31224;SDS011;17847;31.524;74.366;2023-07-13T02:53:54;12.68;;;9.32;;
31224;SDS011;17847;31.524;74.366;2023-07-13T02:56:25;10.88;;;9.32;;
31224;SDS011;17847;31.524;74.366;2023-07-13T02:58:56;11.17;;;9.93;;
31224;SDS011;17847;31.524;74.366;2023-07-13T03:01:26;12.82;;;9.25;;
31224;SDS011;17847;31.524;74.366;2023-07-13T03:03:55;10.27;;;8.65;;
31224;SDS011;17847;31.524;74.366;2023-07-13T03:06:25;9.80;;;8.52;;
31224;SDS011;17847;31.524;74.366;2023-07-13T03:08:59;12.82;;;9.60;;
31224;SDS011;17847;31.524;74.366;2023-07-13T03:11:30;9.63;;;8.60;;
31224;SDS011;17847;31.524;74.366;2023-07-13T03:14:09;8.70;;;7.85;;
31224;SDS011;17847;31.524;74.366;2023-07-13T03:16:39;10.77;;;9.23;;
31224;SDS011;17847;31.524;74.366;2023-07-13T03:19:09;9.13;;;8.20;;
31224;SDS011;17847;31.524;74.366;2023-07-13T03:21:40;11.82;;;9.13;;
31224;SDS011;17847;31.524;74.366;2023-07-13T03:24:10;14.00;;;10.38;;
31224;SDS011;17847;31.524;74.366;2023-07-13T03:26:39;10.52;;;9.30;;
31224;SDS011;17847;31.524;74.366;2023-07-13T03:29:09;11.40;;;10.18;;
31224;SDS011;17847;31.524;74.366;2023-07-13T03:31:39;12.52;;;9.48;;
31224;SDS011;17847;31.524;74.366;2023-07-13T03:34:09;13.95;;;10.52;;
31224;SDS011;17847;31.524;74.366;2023-07-13T03:36:39;11.93;;;9.73;;
31224;SDS011;17847;31.524;74.366;2023-07-13T03:39:12;11.95;;;10.20;;
31224;SDS011;17847;31.524;74.366;2023-07-13T03:41:53;11.30;;;9.60;;
31224;SDS011;17847;31.524;74.366;2023-07-13T03:44:23;12.88;;;9.98;;
31224;SDS011;17847;31.524;74.366;2023-07-13T03:46:55;12.02;;;9.75;;
31224;SDS011;17847;31.524;74.366;2023-07-13T03:49:25;11.10;;;9.27;;
31224;SDS011;17847;31.524;74.366;2023-07-13T03:51:55;12.70;;;10.18;;
31224;SDS011;17847;31.524;74.366;2023-07-13T03:54:25;14.85;;;10.30;;
31224;SDS011;17847;31.524;74.366;2023-07-13T03:56:54;11.10;;;9.57;;
31224;SDS011;17847;31.524;74.366;2023-07-13T03:59:24;13.50;;;10.35;;
31224;SDS011;17847;31.524;74.366;2023-07-13T04:01:53;10.55;;;9.50;;
31224;SDS011;17847;31.524;74.366;2023-07-13T04:04:24;16.30;;;10.70;;
31224;SDS011;17847;31.524;74.366;2023-07-13T04:06:54;11.55;;;10.35;;
31224;SDS011;17847;31.524;74.366;2023-07-13T04:09:24;13.30;;;10.20;;
31224;SDS011;17847;31.524;74.366;2023-07-13T04:11:54;11.48;;;9.07;;
31224;SDS011;17847;31.524;74.366;2023-07-13T04:14:23;11.60;;;9.15;;
31224;SDS011;17847;31.524;74.366;2023-07-13T04:16:52;10.05;;;9.05;;
31224;SDS011;17847;31.524;74.366;2023-07-13T04:19:22;12.45;;;9.13;;
31224;SDS011;17847;31.524;74.366;2023-07-13T04:21:52;12.77;;;9.18;;
31224;SDS011;17847;31.524;74.366;2023-07-13T04:24:21;14.13;;;8.43;;
31224;SDS011;17847;31.524;74.366;2023-07-13T04:26:50;10.15;;;8.80;;
31224;SDS011;17847;31.524;74.366;2023-07-13T04:29:20;9.45;;;8.10;;
31224;SDS011;17847;31.524;74.366;2023-07-13T04:31:49;9.18;;;7.68;;
31224;SDS011;17847;31.524;74.366;2023-07-13T04:34:19;9.75;;;8.15;;
31224;SDS011;17847;31.524;74.366;2023-07-13T04:36:48;9.48;;;8.13;;
31224;SDS011;17847;31.524;74.366;2023-07-13T04:39:19;9.93;;;6.85;;
31224;SDS011;17847;31.524;74.366;2023-07-13T04:41:49;10.32;;;8.35;;
31224;SDS011;17847;31.524;74.366;2023-07-13T04:44:18;10.70;;;8.60;;
31224;SDS011;17847;31.524;74.366;2023-07-13T04:46:47;9.60;;;8.07;;
31224;SDS011;17847;31.524;74.366;2023-07-13T04:49:17;8.52;;;7.57;;
31224;SDS011;17847;31.524;74.366;2023-07-13T04:51:46;11.35;;;8.82;;
31224;SDS011;17847;31.524;74.366;2023-07-13T04:54:15;11.07;;;8.65;;
31224;SDS011;17847;31.524;74.366;2023-07-13T04:56:46;13.35;;;9.25;;
31224;SDS011;17847;31.524;74.366;2023-07-13T04:59:15;10.88;;;8.95;;
31224;SDS011;17847;31.524;74.366;2023-07-13T05:01:44;12.90;;;8.60;;
31224;SDS011;17847;31.524;74.366;2023-07-13T05:04:14;10.80;;;8.15;;
31224;SDS011;17847;31.524;74.366;2023-07-13T05:06:43;9.55;;;8.05;;
31224;SDS011;17847;31.524;74.366;2023-07-13T05:09:13;8.13;;;7.32;;
31224;SDS011;17847;31.524;74.366;2023-07-13T05:11:43;9.77;;;7.88;;
31224;SDS011;17847;31.524;74.366;2023-07-13T05:14:13;8.85;;;7.75;;
31224;SDS011;17847;31.524;74.366;2023-07-13T05:16:45;9.40;;;7.75;;
31224;SDS011;17847;31.524;74.366;2023-07-13T05:19:14;9.65;;;7.97;;
31224;SDS011;17847;31.524;74.366;2023-07-13T05:21:43;13.70;;;8.55;;
31224;SDS011;17847;31.524;74.366;2023-07-13T05:24:13;10.10;;;8.15;;
31224;SDS011;17847;31.524;74.366;2023-07-13T05:26:53;9.50;;;8.50;;
31224;SDS011;17847;31.524;74.366;2023-07-13T05:29:22;10.25;;;7.65;;
31224;SDS011;17847;31.524;74.366;2023-07-13T05:31:52;11.68;;;8.88;;
31224;SDS011;17847;31.524;74.366;2023-07-13T05:34:21;9.25;;;8.25;;
31224;SDS011;17847;31.524;74.366;2023-07-13T05:36:51;7.32;;;6.63;;
31224;SDS011;17847;31.524;74.366;2023-07-13T05:39:21;7.75;;;6.93;;
31224;SDS011;17847;31.524;74.366;2023-07-13T05:41:51;8.20;;;7.40;;
31224;SDS011;17847;31.524;74.366;2023-07-13T05:44:20;6.97;;;6.25;;
31224;SDS011;17847;31.524;74.366;2023-07-13T05:46:49;6.43;;;5.82;;
31224;SDS011;17847;31.524;74.366;2023-07-13T05:49:20;7.72;;;5.90;;
31224;SDS011;17847;31.524;74.366;2023-07-13T05:51:50;7.32;;;5.97;;
31224;SDS011;17847;31.524;74.366;2023-07-13T05:54:20;7.00;;;6.07;;
31224;SDS011;17847;31.524;74.366;2023-07-13T05:56:50;6.05;;;5.45;;
31224;SDS011;17847;31.524;74.366;2023-07-13T05:59:20;8.65;;;6.00;;
31224;SDS011;17847;31.524;74.366;2023-07-13T06:01:49;7.35;;;6.45;;
31224;SDS011;17847;31.524;74.366;2023-07-13T06:04:20;8.48;;;6.38;;
31224;SDS011;17847;31.524;74.366;2023-07-13T06:06:50;6.72;;;6.05;;
31224;SDS011;17847;31.524;74.366;2023-07-13T06:09:20;7.63;;;6.00;;
31224;SDS011;17847;31.524;74.366;2023-07-13T06:11:49;6.40;;;5.78;;
31224;SDS011;17847;31.524;74.366;2023-07-13T06:14:19;7.35;;;6.40;;
31224;SDS011;17847;31.524;74.366;2023-07-13T06:16:48;7.15;;;6.30;;
31224;SDS011;17847;31.524;74.366;2023-07-13T06:19:18;6.95;;;6.25;;
31224;SDS011;17847;31.524;74.366;2023-07-13T06:21:47;7.60;;;6.38;;
31224;SDS011;17847;31.524;74.366;2023-07-13T06:24:16;7.32;;;6.20;;
31224;SDS011;17847;31.524;74.366;2023-07-13T06:26:46;7.10;;;6.43;;
31224;SDS011;17847;31.524;74.366;2023-07-13T06:29:15;7.80;;;7.05;;
31224;SDS011;17847;31.524;74.366;2023-07-13T06:31:44;7.43;;;6.65;;
31224;SDS011;17847;31.524;74.366;2023-07-13T06:34:14;8.02;;;6.60;;
31224;SDS011;17847;31.524;74.366;2023-07-13T06:36:44;9.88;;;6.50;;
31224;SDS011;17847;31.524;74.366;2023-07-13T06:39:13;8.25;;;7.45;;
31224;SDS011;17847;31.524;74.366;2023-07-13T06:41:44;10.25;;;7.30;;
31224;SDS011;17847;31.524;74.366;2023-07-13T06:44:13;8.88;;;7.95;;
31224;SDS011;17847;31.524;74.366;2023-07-13T06:46:42;7.85;;;7.03;;
31224;SDS011;17847;31.524;74.366;2023-07-13T06:49:13;8.30;;;7.45;;
31224;SDS011;17847;31.524;74.366;2023-07-13T06:51:42;9.00;;;7.55;;
31224;SDS011;17847;31.524;74.366;2023-07-13T06:54:13;9.10;;;8.27;;
31224;SDS011;17847;31.524;74.366;2023-07-13T06:56:42;8.88;;;8.00;;
31224;SDS011;17847;31.524;74.366;2023-07-13T06:59:12;8.82;;;7.57;;
31224;SDS011;17847;31.524;74.366;2023-07-13T07:01:42;8.00;;;7.22;;
31224;SDS011;17847;31.524;74.366;2023-07-13T07:04:11;8.73;;;7.93;;
31224;SDS011;17847;31.524;74.366;2023-07-13T07:06:40;8.50;;;7.70;;
31224;SDS011;17847;31.524;74.366;2023-07-13T07:09:10;8.70;;;7.72;;
31224;SDS011;17847;31.524;74.366;2023-07-13T07:11:40;8.88;;;7.97;;
31224;SDS011;17847;31.524;74.366;2023-07-13T07:14:37;9.80;;;8.02;;
31224;SDS011;17847;31.524;74.366;2023-07-13T07:17:06;12.10;;;8.20;;
31224;SDS011;17847;31.524;74.366;2023-07-13T07:19:36;10.70;;;8.02;;
31224;SDS011;17847;31.524;74.366;2023-07-13T07:22:06;9.10;;;8.30;;
31224;SDS011;17847;31.524;74.366;2023-07-13T07:24:36;10.93;;;7.63;;
31224;SDS011;17847;31.524;74.366;2023-07-13T07:27:05;8.95;;;8.05;;
31224;SDS011;17847;31.524;74.366;2023-07-13T07:29:37;11.90;;;7.95;;
31224;SDS011;17847;31.524;74.366;2023-07-13T07:32:13;9.15;;;8.25;;
31224;SDS011;17847;31.524;74.366;2023-07-13T07:35:04;8.73;;;7.82;;
31224;SDS011;17847;31.524;74.366;2023-07-13T07:37:33;13.95;;;8.55;;
31224;SDS011;17847;31.524;74.366;2023-07-13T07:40:07;10.13;;;9.13;;
31224;SDS011;17847;31.524;74.366;2023-07-13T07:42:40;11.30;;;8.02;;
31224;SDS011;17847;31.524;74.366;2023-07-13T07:45:10;9.80;;;8.48;;
31224;SDS011;17847;31.524;74.366;2023-07-13T07:47:39;9.95;;;9.05;;
31224;SDS011;17847;31.524;74.366;2023-07-13T07:50:09;9.30;;;8.43;;
31224;SDS011;17847;31.524;74.366;2023-07-13T07:52:38;9.75;;;8.73;;
31224;SDS011;17847;31.524;74.366;2023-07-13T07:55:08;9.20;;;8.38;;
31224;SDS011;17847;31.524;74.366;2023-07-13T07:57:41;9.52;;;8.55;;
31224;SDS011;17847;31.524;74.366;2023-07-13T08:00:13;9.95;;;8.77;;
31224;SDS011;17847;31.524;74.366;2023-07-13T08:02:46;9.38;;;8.52;;
31224;SDS011;17847;31.524;74.366;2023-07-13T08:08:03;9.82;;;8.77;;
31224;SDS011;17847;31.524;74.366;2023-07-13T08:10:34;9.55;;;8.70;;
31224;SDS011;17847;31.524;74.366;2023-07-13T08:13:05;10.57;;;9.27;;
31224;SDS011;17847;31.524;74.366;2023-07-13T08:15:38;11.95;;;10.60;;
31224;SDS011;17847;31.524;74.366;2023-07-13T08:18:08;11.82;;;10.00;;
31224;SDS011;17847;31.524;74.366;2023-07-13T08:20:38;10.93;;;9.82;;
31224;SDS011;17847;31.524;74.366;2023-07-13T08:23:08;11.35;;;10.25;;
31224;SDS011;17847;31.524;74.366;2023-07-13T08:25:39;12.13;;;10.85;;
31224;SDS011;17847;31.524;74.366;2023-07-13T08:28:09;12.00;;;10.77;;
31224;SDS011;17847;31.524;74.366;2023-07-13T08:30:39;14.00;;;10.48;;
31224;SDS011;17847;31.524;74.366;2023-07-13T08:33:09;11.52;;;10.43;;
31224;SDS011;17847;31.524;74.366;2023-07-13T08:35:39;11.93;;;10.73;;
31224;SDS011;17847;31.524;74.366;2023-07-13T08:38:08;11.80;;;10.55;;
31224;SDS011;17847;31.524;74.366;2023-07-13T08:40:38;12.57;;;11.00;;
31224;SDS011;17847;31.524;74.366;2023-07-13T08:43:13;12.55;;;11.25;;
31224;SDS011;17847;31.524;74.366;2023-07-13T08:45:49;11.45;;;10.23;;
31224;SDS011;17847;31.524;74.366;2023-07-13T08:48:33;11.35;;;10.18;;
31224;SDS011;17847;31.524;74.366;2023-07-13T08:51:12;12.07;;;10.57;;
31224;SDS011;17847;31.524;74.366;2023-07-13T08:53:55;14.27;;;10.50;;
31224;SDS011;17847;31.524;74.366;2023-07-13T08:56:29;12.07;;;10.60;;
31224;SDS011;17847;31.524;74.366;2023-07-13T08:59:04;12.93;;;10.63;;
31224;SDS011;17847;31.524;74.366;2023-07-13T09:04:34;12.10;;;10.90;;
31224;SDS011;17847;31.524;74.366;2023-07-13T09:10:26;12.50;;;11.23;;
31224;SDS011;17847;31.524;74.366;2023-07-13T09:15:57;12.00;;;11.00;;
31224;SDS011;17847;31.524;74.366;2023-07-13T09:21:12;11.20;;;10.20;;
31224;SDS011;17847;31.524;74.366;2023-07-13T09:23:56;12.32;;;10.80;;
31224;SDS011;17847;31.524;74.366;2023-07-13T09:26:48;10.55;;;9.55;;
31224;SDS011;17847;31.524;74.366;2023-07-13T09:29:35;12.40;;;11.20;;
31224;SDS011;17847;31.524;74.366;2023-07-13T09:32:09;14.05;;;11.48;;
31224;SDS011;17847;31.524;74.366;2023-07-13T09:34:42;11.70;;;10.50;;
31224;SDS011;17847;31.524;74.366;2023-07-13T09:37:11;12.75;;;11.45;;
31224;SDS011;17847;31.524;74.366;2023-07-13T09:39:40;13.68;;;11.30;;
31224;SDS011;17847;31.524;74.366;2023-07-13T09:42:15;14.90;;;11.25;;
31224;SDS011;17847;31.524;74.366;2023-07-13T09:44:54;12.88;;;11.57;;
31224;SDS011;17847;31.524;74.366;2023-07-13T09:47:26;12.52;;;11.32;;
31224;SDS011;17847;31.524;74.366;2023-07-13T09:50:02;11.60;;;10.50;;
31224;SDS011;17847;31.524;74.366;2023-07-13T09:52:46;11.52;;;10.43;;
31224;SDS011;17847;31.524;74.366;2023-07-13T09:55:36;12.32;;;11.13;;
31224;SDS011;17847;31.524;74.366;2023-07-13T09:58:14;12.38;;;11.18;;
31224;SDS011;17847;31.524;74.366;2023-07-13T10:00:56;11.73;;;10.52;;
31224;SDS011;17847;31.524;74.366;2023-07-13T10:03:36;12.07;;;10.52;;
31224;SDS011;17847;31.524;74.366;2023-07-13T10:08:46;11.82;;;10.63;;
31224;SDS011;17847;31.524;74.366;2023-07-13T10:13:56;10.65;;;9.65;;
31224;SDS011;17847;31.524;74.366;2023-07-13T10:16:32;11.35;;;10.25;;
31224;SDS011;17847;31.524;74.366;2023-07-13T10:21:58;9.93;;;8.98;;
31224;SDS011;17847;31.524;74.366;2023-07-13T10:24:31;10.93;;;9.82;;
31224;SDS011;17847;31.524;74.366;2023-07-13T10:30:09;11.45;;;10.43;;
31224;SDS011;17847;31.524;74.366;2023-07-13T10:32:52;13.15;;;10.48;;
31224;SDS011;17847;31.524;74.366;2023-07-13T10:35:22;12.02;;;10.77;;
31224;SDS011;17847;31.524;74.366;2023-07-13T10:38:07;11.20;;;10.10;;
31224;SDS011;17847;31.524;74.366;2023-07-13T10:40:54;10.05;;;9.15;;
31224;SDS011;17847;31.524;74.366;2023-07-13T10:43:39;10.60;;;9.70;;
31224;SDS011;17847;31.524;74.366;2023-07-13T10:46:13;10.25;;;9.35;;
31224;SDS011;17847;31.524;74.366;2023-07-13T10:48:47;10.00;;;9.10;;
31224;SDS011;17847;31.524;74.366;2023-07-13T10:51:21;8.68;;;7.88;;
31224;SDS011;17847;31.524;74.366;2023-07-13T10:54:34;9.57;;;8.68;;
31224;SDS011;17847;31.524;74.366;2023-07-13T10:57:31;9.15;;;8.35;;
31224;SDS011;17847;31.524;74.366;2023-07-13T10:59:49;9.75;;;8.85;;
31224;SDS011;17847;31.524;74.366;2023-07-13T11:02:55;11.95;;;10.63;;
31224;SDS011;17847;31.524;74.366;2023-07-13T11:05:32;11.77;;;10.43;;
31224;SDS011;17847;31.524;74.366;2023-07-13T11:08:11;11.05;;;9.77;;
31224;SDS011;17847;31.524;74.366;2023-07-13T11:10:46;11.15;;;10.13;;
31224;SDS011;17847;31.524;74.366;2023-07-13T11:13:36;11.13;;;10.02;;
31224;SDS011;17847;31.524;74.366;2023-07-13T11:18:53;10.98;;;9.63;;
31224;SDS011;17847;31.524;74.366;2023-07-13T11:22:10;10.60;;;9.57;;
31224;SDS011;17847;31.524;74.366;2023-07-13T11:25:00;10.50;;;9.50;;
31224;SDS011;17847;31.524;74.366;2023-07-13T11:27:50;10.35;;;9.35;;
31224;SDS011;17847;31.524;74.366;2023-07-13T11:30:36;14.93;;;10.30;;
31224;SDS011;17847;31.524;74.366;2023-07-13T11:41:01;12.25;;;10.95;;
31224;SDS011;17847;31.524;74.366;2023-07-13T11:43:33;12.32;;;11.02;;
31224;SDS011;17847;31.524;74.366;2023-07-13T11:46:20;12.60;;;11.30;;
31224;SDS011;17847;31.524;74.366;2023-07-13T11:48:51;12.00;;;10.80;;
31224;SDS011;17847;31.524;74.366;2023-07-13T11:54:14;12.82;;;11.43;;
31224;SDS011;17847;31.524;74.366;2023-07-13T11:57:03;12.40;;;11.05;;
31224;SDS011;17847;31.524;74.366;2023-07-13T11:59:48;16.17;;;11.90;;
31224;SDS011;17847;31.524;74.366;2023-07-13T12:05:03;13.70;;;12.15;;
31224;SDS011;17847;31.524;74.366;2023-07-13T12:07:38;13.45;;;12.15;;
31224;SDS011;17847;31.524;74.366;2023-07-13T12:12:46;13.27;;;11.85;;
31224;SDS011;17847;31.524;74.366;2023-07-13T12:15:40;14.52;;;12.75;;
31224;SDS011;17847;31.524;74.366;2023-07-13T12:18:21;12.98;;;11.60;;
31224;SDS011;17847;31.524;74.366;2023-07-13T12:20:54;13.75;;;12.45;;
31224;SDS011;17847;31.524;74.366;2023-07-13T12:23:30;13.75;;;12.35;;
31224;SDS011;17847;31.524;74.366;2023-07-13T12:26:04;14.45;;;12.90;;
31224;SDS011;17847;31.524;74.366;2023-07-13T12:28:56;12.75;;;11.55;;
31224;SDS011;17847;31.524;74.366;2023-07-13T12:31:35;13.70;;;12.38;;
31224;SDS011;17847;31.524;74.366;2023-07-13T12:34:11;14.13;;;12.65;;
31224;SDS011;17847;31.524;74.366;2023-07-13T12:39:35;14.77;;;13.38;;
31224;SDS011;17847;31.524;74.366;2023-07-13T12:44:53;18.63;;;16.80;;
31224;SDS011;17847;31.524;74.366;2023-07-13T12:47:49;18.13;;;16.23;;
31224;SDS011;17847;31.524;74.366;2023-07-13T12:50:28;20.83;;;18.25;;
31224;SDS011;17847;31.524;74.366;2023-07-13T12:53:03;20.85;;;17.75;;
31224;SDS011;17847;31.524;74.366;2023-07-13T12:58:32;22.90;;;17.50;;
31224;SDS011;17847;31.524;74.366;2023-07-13T13:01:07;17.60;;;15.82;;
31224;SDS011;17847;31.524;74.366;2023-07-13T13:03:45;19.45;;;17.55;;
31224;SDS011;17847;31.524;74.366;2023-07-13T13:08:51;18.55;;;16.65;;
31224;SDS011;17847;31.524;74.366;2023-07-13T13:11:27;19.70;;;17.80;;
31224;SDS011;17847;31.524;74.366;2023-07-13T13:13:57;22.25;;;18.35;;
31224;SDS011;17847;31.524;74.366;2023-07-13T13:16:30;22.23;;;19.98;;
31224;SDS011;17847;31.524;74.366;2023-07-13T13:19:18;19.98;;;17.98;;
31224;SDS011;17847;31.524;74.366;2023-07-13T13:21:52;22.23;;;19.42;;
31224;SDS011;17847;31.524;74.366;2023-07-13T13:24:26;21.45;;;19.10;;
31224;SDS011;17847;31.524;74.366;2023-07-13T13:26:57;21.10;;;18.88;;
31224;SDS011;17847;31.524;74.366;2023-07-13T13:29:26;22.48;;;18.30;;
31224;SDS011;17847;31.524;74.366;2023-07-13T13:31:56;22.90;;;19.52;;
31224;SDS011;17847;31.524;74.366;2023-07-13T13:34:25;20.25;;;17.67;;
31224;SDS011;17847;31.524;74.366;2023-07-13T13:36:55;19.00;;;16.92;;
31224;SDS011;17847;31.524;74.366;2023-07-13T13:42:04;20.73;;;16.45;;
31224;SDS011;17847;31.524;74.366;2023-07-13T13:44:34;16.80;;;15.07;;
31224;SDS011;17847;31.524;74.366;2023-07-13T13:47:03;18.67;;;14.30;;
31224;SDS011;17847;31.524;74.366;2023-07-13T13:49:33;15.20;;;13.60;;
31224;SDS011;17847;31.524;74.366;2023-07-13T13:52:05;18.45;;;12.82;;
31224;SDS011;17847;31.524;74.366;2023-07-13T13:54:37;15.90;;;12.15;;
31224;SDS011;17847;31.524;74.366;2023-07-13T13:57:09;17.95;;;11.93;;
31224;SDS011;17847;31.524;74.366;2023-07-13T13:59:40;12.43;;;10.70;;
31224;SDS011;17847;31.524;74.366;2023-07-13T14:02:18;12.75;;;11.40;;
31224;SDS011;17847;31.524;74.366;2023-07-13T14:04:55;11.95;;;10.57;;
31224;SDS011;17847;31.524;74.366;2023-07-13T14:07:28;14.80;;;10.02;;
31224;SDS011;17847;31.524;74.366;2023-07-13T14:10:00;13.55;;;9.93;;
31224;SDS011;17847;31.524;74.366;2023-07-13T14:12:30;10.07;;;8.65;;
31224;SDS011;17847;31.524;74.366;2023-07-13T14:14:59;9.20;;;8.02;;
31224;SDS011;17847;31.524;74.366;2023-07-13T14:17:29;7.13;;;6.38;;
31224;SDS011;17847;31.524;74.366;2023-07-13T14:19:59;9.50;;;6.68;;
31224;SDS011;17847;31.524;74.366;2023-07-13T14:22:29;6.82;;;6.22;;
31224;SDS011;17847;31.524;74.366;2023-07-13T14:24:58;7.13;;;5.90;;
31224;SDS011;17847;31.524;74.366;2023-07-13T14:27:28;8.20;;;6.05;;
31224;SDS011;17847;31.524;74.366;2023-07-13T14:29:58;9.30;;;5.30;;
31224;SDS011;17847;31.524;74.366;2023-07-13T14:32:28;5.20;;;4.70;;
31224;SDS011;17847;31.524;74.366;2023-07-13T14:34:58;6.35;;;4.53;;
31224;SDS011;17847;31.524;74.366;2023-07-13T14:37:28;6.85;;;5.20;;
31224;SDS011;17847;31.524;74.366;2023-07-13T14:40:01;7.10;;;4.90;;
31224;SDS011;17847;31.524;74.366;2023-07-13T14:42:31;5.40;;;4.80;;
31224;SDS011;17847;31.524;74.366;2023-07-13T14:45:01;5.88;;;4.85;;
31224;SDS011;17847;31.524;74.366;2023-07-13T14:47:30;7.20;;;4.90;;
31224;SDS011;17847;31.524;74.366;2023-07-13T14:49:59;4.82;;;4.30;;
31224;SDS011;17847;31.524;74.366;2023-07-13T14:52:31;7.47;;;4.93;;
31224;SDS011;17847;31.524;74.366;2023-07-13T14:55:01;5.10;;;4.60;;
31224;SDS011;17847;31.524;74.366;2023-07-13T14:57:30;5.68;;;4.50;;
31224;SDS011;17847;31.524;74.366;2023-07-13T15:00:00;6.97;;;5.47;;
31224;SDS011;17847;31.524;74.366;2023-07-13T15:02:31;6.78;;;4.70;;
31224;SDS011;17847;31.524;74.366;2023-07-13T15:05:14;13.02;;;5.30;;
31224;SDS011;17847;31.524;74.366;2023-07-13T15:07:48;6.45;;;5.28;;
31224;SDS011;17847;31.524;74.366;2023-07-13T15:10:19;8.88;;;4.72;;
31224;SDS011;17847;31.524;74.366;2023-07-13T15:12:51;5.63;;;4.65;;
31224;SDS011;17847;31.524;74.366;2023-07-13T15:15:21;7.28;;;4.32;;
31224;SDS011;17847;31.524;74.366;2023-07-13T15:17:51;5.20;;;4.70;;
31224;SDS011;17847;31.524;74.366;2023-07-13T15:23:01;5.05;;;4.43;;
31224;SDS011;17847;31.524;74.366;2023-07-13T15:25:31;4.88;;;4.38;;
31224;SDS011;17847;31.524;74.366;2023-07-13T15:28:02;5.50;;;4.80;;
31224;SDS011;17847;31.524;74.366;2023-07-13T15:30:33;6.10;;;5.50;;
31224;SDS011;17847;31.524;74.366;2023-07-13T15:33:20;6.10;;;5.43;;
31224;SDS011;17847;31.524;74.366;2023-07-13T15:36:02;5.38;;;4.88;;
31224;SDS011;17847;31.524;74.366;2023-07-13T15:38:33;7.68;;;5.60;;
31224;SDS011;17847;31.524;74.366;2023-07-13T15:43:49;9.52;;;5.63;;
31224;SDS011;17847;31.524;74.366;2023-07-13T15:46:21;6.97;;;5.45;;
31224;SDS011;17847;31.524;74.366;2023-07-13T15:48:52;7.47;;;5.38;;
31224;SDS011;17847;31.524;74.366;2023-07-13T15:51:26;10.38;;;5.80;;
31224;SDS011;17847;31.524;74.366;2023-07-13T15:53:59;6.70;;;5.80;;
31224;SDS011;17847;31.524;74.366;2023-07-13T15:56:34;8.65;;;6.60;;
31224;SDS011;17847;31.524;74.366;2023-07-13T16:01:38;7.40;;;6.03;;
31224;SDS011;17847;31.524;74.366;2023-07-13T16:04:10;7.93;;;6.00;;
31224;SDS011;17847;31.524;74.366;2023-07-13T16:06:40;9.18;;;6.60;;